Atalandi — SVBA — position and weather

sailwx.info

Track history (hours):
 
Tides and Currents Weather Stations Pressure Air Temp Water Temp Dewpoint Dewpoint Depression Visibility Wind Speed Wind Dir Waves Ship Positions

Atalandi

Last reported at 2017-Feb-24 08:30 UTC. Time now 2017-Feb-26 14:43 UTC.
Position N 51°39' E 002°26'.

Length 248 m; draft 8.5 m.

Type: Ship (hazmat cat A). MMSI: 240269000.

Date/timePositionNaut miles runAvg speedWind from/ knotsBaromVisibWave heightAir tempDewpointWater temp
2017-Feb-24 08:30N 51°39' E 002°26'5 5.5
2017-Feb-24 07:33N 51°35' E 002°20'5 5.2
2017-Feb-24 06:33N 51°31' E 002°15'7 7.4
2017-Feb-24 05:33N 51°25' E 002°08'8 8.0
2017-Feb-24 04:33N 51°17' E 002°07'9 9.0
2017-Feb-24 03:33N 51°11' E 001°57'10 9.6
2017-Feb-24 02:33N 51°06' E 001°44'1010.2
2017-Feb-24 01:33N 50°58' E 001°33'1110.6
2017-Feb-24 00:33N 50°49' E 001°26'9 8.8
2017-Feb-23 23:32N 50°41' E 001°19'34 8.4
2017-Feb-23 19:28N 50°25' E 000°31'910.0
2017-Feb-23 18:33N 50°22' E 000°18'1010.2
2017-Feb-23 17:33N 50°20' E 000°02'1312.5
2017-Feb-23 16:33N 50°19' W 000°17'25 7.9
2017-Feb-23 13:22N 50°26' W 000°55'6 8.0
2017-Feb-23 12:33N 50°33' W 000°55'8 8.1
2017-Feb-23 11:33N 50°41' W 000°57'1110.7
2017-Feb-23 10:33N 50°46' W 001°11'7 6.7
2017-Feb-23 09:32N 50°50' W 001°20'0 0.0
2017-Feb-23 08:32N 50°50' W 001°20'0 0.0
2017-Feb-23 07:29N 50°50' W 001°20'0 0.0
2017-Feb-23 06:20N 50°50' W 001°20'0 0.0
2017-Feb-23 05:32N 50°50' W 001°20'0 0.0
2017-Feb-23 04:32N 50°50' W 001°20'0 0.0
2017-Feb-23 03:32N 50°50' W 001°20'0 0.0
2017-Feb-23 02:32N 50°50' W 001°20'0 0.0
2017-Feb-23 01:29N 50°50' W 001°20'0 0.0
2017-Feb-23 00:32N 50°50' W 001°20'0 0.0
2017-Feb-22 23:32N 50°50' W 001°20'0 0.0
2017-Feb-22 22:32N 50°50' W 001°20'0 0.0
2017-Feb-22 21:32N 50°50' W 001°20'0 0.0
2017-Feb-22 20:32N 50°50' W 001°20'0 0.0
2017-Feb-22 19:32N 50°50' W 001°20'0 0.0
2017-Feb-22 18:32N 50°50' W 001°20'0 0.0
2017-Feb-22 16:32N 50°50' W 001°20'0 0.0
2017-Feb-22 15:29N 50°50' W 001°20'0 0.0
2017-Feb-22 13:32N 50°50' W 001°20'0 0.0
2017-Feb-22 07:17N 50°50' W 001°20'0 0.0
2017-Feb-22 06:32N 50°50' W 001°20'0 0.0
2017-Feb-21 20:09N 50°50' W 001°20'0 0.0
2017-Feb-21 14:24N 50°50' W 001°20'0 0.4
2017-Feb-21 13:34N 50°50' W 001°19'6 6.3
2017-Feb-21 12:34N 50°46' W 001°12'1110.8
2017-Feb-21 11:34N 50°41' W 000°57'5 5.3
2017-Feb-21 10:34N 50°36' W 000°58'3 2.8
2017-Feb-21 09:33N 50°36' W 001°03'0 0.2
2017-Feb-21 08:33N 50°36' W 001°03'0 0.2
2017-Feb-21 07:33N 50°36' W 001°02'0 0.0
2017-Feb-21 06:33N 50°36' W 001°02'0 0.0
2017-Feb-21 05:30N 50°36' W 001°02'0 0.0
2017-Feb-21 04:33N 50°36' W 001°02'0 0.0
2017-Feb-21 03:33N 50°36' W 001°02'0 0.0
2017-Feb-21 02:33N 50°36' W 001°02'0 0.0
2017-Feb-21 01:33N 50°36' W 001°02'0 0.0
2017-Feb-21 00:33N 50°36' W 001°02'0 0.0
2017-Feb-20 23:33N 50°36' W 001°02'0 0.3
2017-Feb-20 22:33N 50°36' W 001°03'0 0.0
2017-Feb-20 21:33N 50°36' W 001°03'0 0.0
2017-Feb-20 20:33N 50°36' W 001°03'0 0.2
2017-Feb-20 19:33N 50°36' W 001°03'0 0.2
2017-Feb-20 18:33N 50°36' W 001°02'0 0.1
2017-Feb-20 17:33N 50°36' W 001°02'0 0.0
2017-Feb-20 16:33N 50°36' W 001°02'0 0.0
2017-Feb-20 15:33N 50°36' W 001°02'0 0.0
2017-Feb-20 14:33N 50°36' W 001°02'0 0.0
2017-Feb-20 13:30N 50°36' W 001°02'0 0.0
2017-Feb-20 12:33N 50°36' W 001°02'0 0.0
2017-Feb-20 11:30N 50°36' W 001°02'0 0.2
2017-Feb-20 10:18N 50°36' W 001°03'0 0.1
2017-Feb-20 09:33N 50°36' W 001°03'0 0.0
2017-Feb-20 08:33N 50°36' W 001°03'0 0.0
2017-Feb-20 07:33N 50°36' W 001°03'0 0.0
2017-Feb-20 06:33N 50°36' W 001°03'0 0.3
2017-Feb-20 05:33N 50°36' W 001°02'0 0.0
2017-Feb-20 04:33N 50°36' W 001°02'0 0.0
2017-Feb-20 03:33N 50°36' W 001°02'0 0.0
2017-Feb-20 02:33N 50°36' W 001°02'0 0.0
2017-Feb-20 01:33N 50°36' W 001°02'0 0.0
2017-Feb-20 00:33N 50°36' W 001°02'0 0.0
2017-Feb-19 23:33N 50°36' W 001°02'0 0.1
2017-Feb-19 22:21N 50°36' W 001°03'0 0.2
2017-Feb-19 21:33N 50°36' W 001°03'0 0.0
2017-Feb-19 20:33N 50°36' W 001°03'0 0.0
2017-Feb-19 19:33N 50°36' W 001°03'0 0.0
2017-Feb-19 18:33N 50°36' W 001°03'0 0.3
2017-Feb-19 17:30N 50°36' W 001°03'0 0.1
2017-Feb-19 16:33N 50°36' W 001°02'0 0.0
2017-Feb-19 15:33N 50°36' W 001°02'0 0.0
2017-Feb-19 14:33N 50°36' W 001°02'0 0.0
2017-Feb-19 13:33N 50°36' W 001°02'0 0.0
2017-Feb-19 12:33N 50°36' W 001°02'0 0.0
2017-Feb-19 11:33N 50°36' W 001°02'0 0.0
2017-Feb-19 10:33N 50°36' W 001°02'0 0.2
2017-Feb-19 09:33N 50°36' W 001°03'0 0.1
2017-Feb-19 08:33N 50°36' W 001°03'0 0.0
2017-Feb-19 07:33N 50°36' W 001°03'0 0.0
2017-Feb-19 06:33N 50°36' W 001°03'0 0.0
2017-Feb-19 05:33N 50°36' W 001°03'0 0.1
2017-Feb-19 04:33N 50°36' W 001°03'0 0.3
2017-Feb-19 03:33N 50°36' W 001°02'0 0.0
2017-Feb-19 02:33N 50°36' W 001°02'0 0.0
2017-Feb-19 01:33N 50°36' W 001°02'0 0.0
2017-Feb-19 00:33N 50°36' W 001°02'0 0.0
2017-Feb-18 23:33N 50°36' W 001°02'0 0.0
2017-Feb-18 22:33N 50°36' W 001°02'0 0.2
2017-Feb-18 21:33N 50°36' W 001°03'0 0.1
2017-Feb-18 20:33N 50°36' W 001°03'0 0.0
2017-Feb-18 19:33N 50°36' W 001°03'0 0.0
2017-Feb-18 18:33N 50°36' W 001°03'0 0.0
2017-Feb-18 17:33N 50°36' W 001°03'0 0.0
2017-Feb-18 16:33N 50°36' W 001°03'0 0.2
2017-Feb-18 15:33N 50°36' W 001°03'0 0.1
2017-Feb-18 14:33N 50°36' W 001°02'0 0.0
2017-Feb-18 13:33N 50°36' W 001°02'0 0.0
2017-Feb-18 12:33N 50°36' W 001°02'0 0.0
2017-Feb-18 11:33N 50°36' W 001°02'0 0.0
2017-Feb-18 10:33N 50°36' W 001°02'0 0.2
2017-Feb-18 09:33N 50°36' W 001°03'0 0.2
2017-Feb-18 08:33N 50°36' W 001°03'0 0.0
2017-Feb-18 07:33N 50°36' W 001°03'0 0.0
2017-Feb-18 06:33N 50°36' W 001°03'0 0.0
2017-Feb-18 05:33N 50°36' W 001°03'0 0.0
2017-Feb-18 04:33N 50°36' W 001°03'0 0.0
2017-Feb-18 03:33N 50°36' W 001°03'0 0.3
2017-Feb-18 02:33N 50°36' W 001°02'0 0.0
2017-Feb-18 01:33N 50°36' W 001°02'0 0.0
2017-Feb-18 00:33N 50°36' W 001°02'0 0.0
2017-Feb-17 23:33N 50°36' W 001°02'0 0.1
2017-Feb-17 22:33N 50°36' W 001°02'0 0.1
2017-Feb-17 21:33N 50°36' W 001°03'0 0.3
2017-Feb-17 20:33N 50°36' W 001°03'0 0.0
2017-Feb-17 19:30N 50°36' W 001°03'0 0.1
2017-Feb-17 18:33N 50°36' W 001°03'0 0.1
2017-Feb-17 17:33N 50°36' W 001°03'1 0.9
2017-Feb-17 16:33N 50°35' W 001°02'8 7.9
2017-Feb-17 15:33N 50°34' W 000°50'1111.2
2017-Feb-17 14:33N 50°32' W 000°33'1110.6
2017-Feb-17 13:33N 50°31' W 000°16'1010.0
2017-Feb-17 12:33N 50°32' W 000°00'1010.0
2017-Feb-17 11:33N 50°33' E 000°15'1211.2
2017-Feb-17 10:29N 50°36' E 000°33'1812.4
2017-Feb-17 09:03N 50°45' E 000°57'713.0
2017-Feb-17 08:30N 50°49' E 001°07'1212.7
2017-Feb-17 07:33N 50°57' E 001°21'1211.9
2017-Feb-17 06:33N 51°06' E 001°34'1110.9
2017-Feb-17 05:33N 51°13' E 001°46'1010.4
2017-Feb-17 04:33N 51°22' E 001°55'1111.1
2017-Feb-17 03:33N 51°32' E 002°04'1212.0
2017-Feb-17 02:32N 51°41' E 002°18'3113.4
2017-Feb-17 00:14N 52°08' E 002°39'1013.7
2017-Feb-16 23:32N 52°17' E 002°46'12811.4
2017-Feb-16 12:19N 54°10' E 004°27'20310.3
2017-Feb-15 16:32N 57°28' E 005°50'1212.5
2017-Feb-15 15:33N 57°38' E 005°38'1212.3
2017-Feb-15 14:33N 57°49' E 005°26'1212.0
2017-Feb-15 13:33N 57°59' E 005°14'1212.0
2017-Feb-15 12:32N 58°09' E 005°01'1212.2
2017-Feb-15 11:33N 58°19' E 004°49'1211.3
2017-Feb-15 10:31N 58°29' E 004°37'1111.1
2017-Feb-15 09:31N 58°38' E 004°26'1111.2
2017-Feb-15 08:33N 58°48' E 004°15'11511.1
2017-Feb-14 22:09N 60°43' E 004°20'711.3
2017-Feb-14 21:33N 60°48' E 004°28'7 7.4
2017-Feb-14 20:33N 60°51' E 004°42'10 9.7
2017-Feb-14 19:32N 60°49' E 005°02'0 0.3
2017-Feb-14 18:33N 60°49' E 005°02'0 0.0
2017-Feb-14 17:33N 60°49' E 005°02'0 0.0
2017-Feb-14 16:33N 60°49' E 005°02'0 0.0
2017-Feb-14 15:33N 60°49' E 005°02'0 0.0
2017-Feb-14 14:33N 60°49' E 005°02'0 0.0
2017-Feb-14 13:33N 60°49' E 005°02'0 0.0
2017-Feb-14 12:33N 60°49' E 005°02'0 0.0
2017-Feb-14 11:32N 60°49' E 005°02'0 0.0
2017-Feb-14 10:33N 60°49' E 005°02'0 0.0
2017-Feb-14 09:33N 60°49' E 005°02'0 0.0
2017-Feb-14 08:33N 60°49' E 005°02'  
Track history (hours):
 
Tides and Currents Weather Stations Pressure Air Temp Water Temp Dewpoint Dewpoint Depression Visibility Wind Speed Wind Dir Waves Ship Positions

Atalandi

Last reported at 2017-Feb-24 08:30 UTC. Time now 2017-Feb-26 14:43 UTC.
Position N 51°39' E 002°26'.

Length 248 m; draft 8.5 m.

Type: Ship (hazmat cat A). MMSI: 240269000.

Date/timePositionNaut miles runAvg speedWind from/ knotsBaromVisibWave heightAir tempDewpointWater temp
2017-Feb-24 08:30N 51°39' E 002°26'5 5.5
2017-Feb-24 07:33N 51°35' E 002°20'5 5.2
2017-Feb-24 06:33N 51°31' E 002°15'7 7.4
2017-Feb-24 05:33N 51°25' E 002°08'8 8.0
2017-Feb-24 04:33N 51°17' E 002°07'9 9.0
2017-Feb-24 03:33N 51°11' E 001°57'10 9.6
2017-Feb-24 02:33N 51°06' E 001°44'1010.2
2017-Feb-24 01:33N 50°58' E 001°33'1110.6
2017-Feb-24 00:33N 50°49' E 001°26'9 8.8
2017-Feb-23 23:32N 50°41' E 001°19'34 8.4
2017-Feb-23 19:28N 50°25' E 000°31'910.0
2017-Feb-23 18:33N 50°22' E 000°18'1010.2
2017-Feb-23 17:33N 50°20' E 000°02'1312.5
2017-Feb-23 16:33N 50°19' W 000°17'25 7.9
2017-Feb-23 13:22N 50°26' W 000°55'6 8.0
2017-Feb-23 12:33N 50°33' W 000°55'8 8.1
2017-Feb-23 11:33N 50°41' W 000°57'1110.7
2017-Feb-23 10:33N 50°46' W 001°11'7 6.7
2017-Feb-23 09:32N 50°50' W 001°20'0 0.0
2017-Feb-23 08:32N 50°50' W 001°20'0 0.0
2017-Feb-23 07:29N 50°50' W 001°20'0 0.0
2017-Feb-23 06:20N 50°50' W 001°20'0 0.0
2017-Feb-23 05:32N 50°50' W 001°20'0 0.0
2017-Feb-23 04:32N 50°50' W 001°20'0 0.0
2017-Feb-23 03:32N 50°50' W 001°20'0 0.0
2017-Feb-23 02:32N 50°50' W 001°20'0 0.0
2017-Feb-23 01:29N 50°50' W 001°20'0 0.0
2017-Feb-23 00:32N 50°50' W 001°20'0 0.0
2017-Feb-22 23:32N 50°50' W 001°20'0 0.0
2017-Feb-22 22:32N 50°50' W 001°20'0 0.0
2017-Feb-22 21:32N 50°50' W 001°20'0 0.0
2017-Feb-22 20:32N 50°50' W 001°20'0 0.0
2017-Feb-22 19:32N 50°50' W 001°20'0 0.0
2017-Feb-22 18:32N 50°50' W 001°20'0 0.0
2017-Feb-22 16:32N 50°50' W 001°20'0 0.0
2017-Feb-22 15:29N 50°50' W 001°20'0 0.0
2017-Feb-22 13:32N 50°50' W 001°20'0 0.0
2017-Feb-22 07:17N 50°50' W 001°20'0 0.0
2017-Feb-22 06:32N 50°50' W 001°20'0 0.0
2017-Feb-21 20:09N 50°50' W 001°20'0 0.0
2017-Feb-21 14:24N 50°50' W 001°20'0 0.4
2017-Feb-21 13:34N 50°50' W 001°19'6 6.3
2017-Feb-21 12:34N 50°46' W 001°12'1110.8
2017-Feb-21 11:34N 50°41' W 000°57'5 5.3
2017-Feb-21 10:34N 50°36' W 000°58'3 2.8
2017-Feb-21 09:33N 50°36' W 001°03'0 0.2
2017-Feb-21 08:33N 50°36' W 001°03'0 0.2
2017-Feb-21 07:33N 50°36' W 001°02'0 0.0
2017-Feb-21 06:33N 50°36' W 001°02'0 0.0
2017-Feb-21 05:30N 50°36' W 001°02'0 0.0
2017-Feb-21 04:33N 50°36' W 001°02'0 0.0
2017-Feb-21 03:33N 50°36' W 001°02'0 0.0
2017-Feb-21 02:33N 50°36' W 001°02'0 0.0
2017-Feb-21 01:33N 50°36' W 001°02'0 0.0
2017-Feb-21 00:33N 50°36' W 001°02'0 0.0
2017-Feb-20 23:33N 50°36' W 001°02'0 0.3
2017-Feb-20 22:33N 50°36' W 001°03'0 0.0
2017-Feb-20 21:33N 50°36' W 001°03'0 0.0
2017-Feb-20 20:33N 50°36' W 001°03'0 0.2
2017-Feb-20 19:33N 50°36' W 001°03'0 0.2
2017-Feb-20 18:33N 50°36' W 001°02'0 0.1
2017-Feb-20 17:33N 50°36' W 001°02'0 0.0
2017-Feb-20 16:33N 50°36' W 001°02'0 0.0
2017-Feb-20 15:33N 50°36' W 001°02'0 0.0
2017-Feb-20 14:33N 50°36' W 001°02'0 0.0
2017-Feb-20 13:30N 50°36' W 001°02'0 0.0
2017-Feb-20 12:33N 50°36' W 001°02'0 0.0
2017-Feb-20 11:30N 50°36' W 001°02'0 0.2
2017-Feb-20 10:18N 50°36' W 001°03'0 0.1
2017-Feb-20 09:33N 50°36' W 001°03'0 0.0
2017-Feb-20 08:33N 50°36' W 001°03'0 0.0
2017-Feb-20 07:33N 50°36' W 001°03'0 0.0
2017-Feb-20 06:33N 50°36' W 001°03'0 0.3
2017-Feb-20 05:33N 50°36' W 001°02'0 0.0
2017-Feb-20 04:33N 50°36' W 001°02'0 0.0
2017-Feb-20 03:33N 50°36' W 001°02'0 0.0
2017-Feb-20 02:33N 50°36' W 001°02'0 0.0
2017-Feb-20 01:33N 50°36' W 001°02'0 0.0
2017-Feb-20 00:33N 50°36' W 001°02'0 0.0
2017-Feb-19 23:33N 50°36' W 001°02'0 0.1
2017-Feb-19 22:21N 50°36' W 001°03'0 0.2
2017-Feb-19 21:33N 50°36' W 001°03'0 0.0
2017-Feb-19 20:33N 50°36' W 001°03'0 0.0
2017-Feb-19 19:33N 50°36' W 001°03'0 0.0
2017-Feb-19 18:33N 50°36' W 001°03'0 0.3
2017-Feb-19 17:30N 50°36' W 001°03'0 0.1
2017-Feb-19 16:33N 50°36' W 001°02'0 0.0
2017-Feb-19 15:33N 50°36' W 001°02'0 0.0
2017-Feb-19 14:33N 50°36' W 001°02'0 0.0
2017-Feb-19 13:33N 50°36' W 001°02'0 0.0
2017-Feb-19 12:33N 50°36' W 001°02'0 0.0
2017-Feb-19 11:33N 50°36' W 001°02'0 0.0
2017-Feb-19 10:33N 50°36' W 001°02'0 0.2
2017-Feb-19 09:33N 50°36' W 001°03'0 0.1
2017-Feb-19 08:33N 50°36' W 001°03'0 0.0
2017-Feb-19 07:33N 50°36' W 001°03'0 0.0
2017-Feb-19 06:33N 50°36' W 001°03'0 0.0
2017-Feb-19 05:33N 50°36' W 001°03'0 0.1
2017-Feb-19 04:33N 50°36' W 001°03'0 0.3
2017-Feb-19 03:33N 50°36' W 001°02'0 0.0
2017-Feb-19 02:33N 50°36' W 001°02'0 0.0
2017-Feb-19 01:33N 50°36' W 001°02'0 0.0
2017-Feb-19 00:33N 50°36' W 001°02'0 0.0
2017-Feb-18 23:33N 50°36' W 001°02'0 0.0
2017-Feb-18 22:33N 50°36' W 001°02'0 0.2
2017-Feb-18 21:33N 50°36' W 001°03'0 0.1
2017-Feb-18 20:33N 50°36' W 001°03'0 0.0
2017-Feb-18 19:33N 50°36' W 001°03'0 0.0
2017-Feb-18 18:33N 50°36' W 001°03'0 0.0
2017-Feb-18 17:33N 50°36' W 001°03'0 0.0
2017-Feb-18 16:33N 50°36' W 001°03'0 0.2
2017-Feb-18 15:33N 50°36' W 001°03'0 0.1
2017-Feb-18 14:33N 50°36' W 001°02'0 0.0
2017-Feb-18 13:33N 50°36' W 001°02'0 0.0
2017-Feb-18 12:33N 50°36' W 001°02'0 0.0
2017-Feb-18 11:33N 50°36' W 001°02'0 0.0
2017-Feb-18 10:33N 50°36' W 001°02'0 0.2
2017-Feb-18 09:33N 50°36' W 001°03'0 0.2
2017-Feb-18 08:33N 50°36' W 001°03'0 0.0
2017-Feb-18 07:33N 50°36' W 001°03'0 0.0
2017-Feb-18 06:33N 50°36' W 001°03'0 0.0
2017-Feb-18 05:33N 50°36' W 001°03'0 0.0
2017-Feb-18 04:33N 50°36' W 001°03'0 0.0
2017-Feb-18 03:33N 50°36' W 001°03'0 0.3
2017-Feb-18 02:33N 50°36' W 001°02'0 0.0
2017-Feb-18 01:33N 50°36' W 001°02'0 0.0
2017-Feb-18 00:33N 50°36' W 001°02'0 0.0
2017-Feb-17 23:33N 50°36' W 001°02'0 0.1
2017-Feb-17 22:33N 50°36' W 001°02'0 0.1
2017-Feb-17 21:33N 50°36' W 001°03'0 0.3
2017-Feb-17 20:33N 50°36' W 001°03'0 0.0
2017-Feb-17 19:30N 50°36' W 001°03'0 0.1
2017-Feb-17 18:33N 50°36' W 001°03'0 0.1
2017-Feb-17 17:33N 50°36' W 001°03'1 0.9
2017-Feb-17 16:33N 50°35' W 001°02'8 7.9
2017-Feb-17 15:33N 50°34' W 000°50'1111.2
2017-Feb-17 14:33N 50°32' W 000°33'1110.6
2017-Feb-17 13:33N 50°31' W 000°16'1010.0
2017-Feb-17 12:33N 50°32' W 000°00'1010.0
2017-Feb-17 11:33N 50°33' E 000°15'1211.2
2017-Feb-17 10:29N 50°36' E 000°33'1812.4
2017-Feb-17 09:03N 50°45' E 000°57'713.0
2017-Feb-17 08:30N 50°49' E 001°07'1212.7
2017-Feb-17 07:33N 50°57' E 001°21'1211.9
2017-Feb-17 06:33N 51°06' E 001°34'1110.9
2017-Feb-17 05:33N 51°13' E 001°46'1010.4
2017-Feb-17 04:33N 51°22' E 001°55'1111.1
2017-Feb-17 03:33N 51°32' E 002°04'1212.0
2017-Feb-17 02:32N 51°41' E 002°18'3113.4
2017-Feb-17 00:14N 52°08' E 002°39'1013.7
2017-Feb-16 23:32N 52°17' E 002°46'12811.4
2017-Feb-16 12:19N 54°10' E 004°27'20310.3
2017-Feb-15 16:32N 57°28' E 005°50'1212.5
2017-Feb-15 15:33N 57°38' E 005°38'1212.3
2017-Feb-15 14:33N 57°49' E 005°26'1212.0
2017-Feb-15 13:33N 57°59' E 005°14'1212.0
2017-Feb-15 12:32N 58°09' E 005°01'1212.2
2017-Feb-15 11:33N 58°19' E 004°49'1211.3
2017-Feb-15 10:31N 58°29' E 004°37'1111.1
2017-Feb-15 09:31N 58°38' E 004°26'1111.2
2017-Feb-15 08:33N 58°48' E 004°15'11511.1
2017-Feb-14 22:09N 60°43' E 004°20'711.3
2017-Feb-14 21:33N 60°48' E 004°28'7 7.4
2017-Feb-14 20:33N 60°51' E 004°42'10 9.7
2017-Feb-14 19:32N 60°49' E 005°02'0 0.3
2017-Feb-14 18:33N 60°49' E 005°02'0 0.0
2017-Feb-14 17:33N 60°49' E 005°02'0 0.0
2017-Feb-14 16:33N 60°49' E 005°02'0 0.0
2017-Feb-14 15:33N 60°49' E 005°02'0 0.0
2017-Feb-14 14:33N 60°49' E 005°02'0 0.0
2017-Feb-14 13:33N 60°49' E 005°02'0 0.0
2017-Feb-14 12:33N 60°49' E 005°02'0 0.0
2017-Feb-14 11:32N 60°49' E 005°02'0 0.0
2017-Feb-14 10:33N 60°49' E 005°02'0 0.0
2017-Feb-14 09:33N 60°49' E 005°02'0 0.0
2017-Feb-14 08:33N 60°49' E 005°02'  

Dump ship's entire track history